KMAN

Nampa Municipal Airport

Nampa, Idaho, USA
METAR KMAN 221355Z AUTO 13004KT 10SM SCT110 08/05 A3003 RMK A01
Observed Flight Rules
Oct-22 @ 13:55 UTC (25 minutes ago) Visual Flight Rules
Wind Visibility Clouds
130° at 4 knots 10 miles
  • Scattered at 11,000' AGL
Temperatures Readings
Current 8°C / 46°F
Dewpoint 5°C / 41°F
Humidity 82%
Altimeter 30.03" Hg
Pressure 1017 hPa
Elevation 774
METAR KMAN 221355Z AUTO 13004KT 10SM SCT110 08/05 A3003 RMK A01
Observed Flight Rules
Oct-22 @ 13:55 UTC
(25 minutes ago)
VFR
Wind Visibility
130° at 4 knots 10 miles
Clouds
  • Scattered at 11,000' AGL
Temperature Dewpoint
8°C / 46°F 5°C / 41°F
Humidity Altimeter Pressure
82% 30.03" Hg 1017 hPa